sensor_id;sensor_type;location;lat;lon;timestamp;temperature;humidity
51867;DHT22;52862;52.504;13.480;2023-09-19T00:00:32;18.90;99.90
51867;DHT22;52862;52.504;13.480;2023-09-19T00:03:00;18.50;99.90
51867;DHT22;52862;52.504;13.480;2023-09-19T00:05:27;19.00;99.90
51867;DHT22;52862;52.504;13.480;2023-09-19T00:07:56;18.80;99.90
51867;DHT22;52862;52.504;13.480;2023-09-19T00:10:24;18.60;99.90
51867;DHT22;52862;52.504;13.480;2023-09-19T00:12:53;18.60;99.90
51867;DHT22;52862;52.504;13.480;2023-09-19T00:15:22;18.60;99.90
51867;DHT22;52862;52.504;13.480;2023-09-19T00:17:49;18.80;99.90
51867;DHT22;52862;52.504;13.480;2023-09-19T00:20:18;18.80;99.90
51867;DHT22;52862;52.504;13.480;2023-09-19T00:22:45;19.10;99.90
51867;DHT22;52862;52.504;13.480;2023-09-19T00:25:12;18.60;99.90
51867;DHT22;52862;52.504;13.480;2023-09-19T00:30:10;18.80;99.90
51867;DHT22;52862;52.504;13.480;2023-09-19T00:32:42;18.70;99.90
51867;DHT22;52862;52.504;13.480;2023-09-19T00:35:10;19.00;99.90
51867;DHT22;52862;52.504;13.480;2023-09-19T00:37:37;18.60;99.90
51867;DHT22;52862;52.504;13.480;2023-09-19T00:40:06;18.50;99.90
51867;DHT22;52862;52.504;13.480;2023-09-19T00:42:38;18.60;99.90
51867;DHT22;52862;52.504;13.480;2023-09-19T00:45:06;18.60;99.90
51867;DHT22;52862;52.504;13.480;2023-09-19T00:47:35;18.20;99.90
51867;DHT22;52862;52.504;13.480;2023-09-19T00:50:04;18.60;99.90
51867;DHT22;52862;52.504;13.480;2023-09-19T00:52:34;18.80;99.90
51867;DHT22;52862;52.504;13.480;2023-09-19T00:55:03;18.70;99.90
51867;DHT22;52862;52.504;13.480;2023-09-19T00:57:31;18.70;99.90
51867;DHT22;52862;52.504;13.480;2023-09-19T00:59:59;18.30;99.90
51867;DHT22;52862;52.504;13.480;2023-09-19T01:02:26;18.90;99.90
51867;DHT22;52862;52.504;13.480;2023-09-19T01:04:56;18.30;99.90
51867;DHT22;52862;52.504;13.480;2023-09-19T01:07:23;18.40;99.90
51867;DHT22;52862;52.504;13.480;2023-09-19T01:09:50;18.50;99.90
51867;DHT22;52862;52.504;13.480;2023-09-19T01:12:29;18.40;99.90
51867;DHT22;52862;52.504;13.480;2023-09-19T01:15:03;18.20;99.90
51867;DHT22;52862;52.504;13.480;2023-09-19T01:17:38;18.10;99.90
51867;DHT22;52862;52.504;13.480;2023-09-19T01:20:17;18.40;99.90
51867;DHT22;52862;52.504;13.480;2023-09-19T01:23:00;18.40;99.90
51867;DHT22;52862;52.504;13.480;2023-09-19T01:26:06;18.30;99.90
51867;DHT22;52862;52.504;13.480;2023-09-19T01:28:43;18.30;99.90
51867;DHT22;52862;52.504;13.480;2023-09-19T01:31:14;18.30;99.90
51867;DHT22;52862;52.504;13.480;2023-09-19T01:33:58;18.30;99.90
51867;DHT22;52862;52.504;13.480;2023-09-19T01:36:30;18.70;99.90
51867;DHT22;52862;52.504;13.480;2023-09-19T01:38:58;18.40;99.90
51867;DHT22;52862;52.504;13.480;2023-09-19T01:41:56;18.30;99.90
51867;DHT22;52862;52.504;13.480;2023-09-19T01:44:31;18.10;99.90
51867;DHT22;52862;52.504;13.480;2023-09-19T01:47:12;18.30;99.90
51867;DHT22;52862;52.504;13.480;2023-09-19T01:49:55;18.00;99.90
51867;DHT22;52862;52.504;13.480;2023-09-19T01:52:30;18.20;99.90
51867;DHT22;52862;52.504;13.480;2023-09-19T01:55:05;18.30;99.90
51867;DHT22;52862;52.504;13.480;2023-09-19T01:57:37;18.30;99.90
51867;DHT22;52862;52.504;13.480;2023-09-19T02:00:08;18.40;99.90
51867;DHT22;52862;52.504;13.480;2023-09-19T02:02:40;18.00;99.90
51867;DHT22;52862;52.504;13.480;2023-09-19T02:07:35;18.10;99.90
51867;DHT22;52862;52.504;13.480;2023-09-19T02:10:04;18.50;99.90
51867;DHT22;52862;52.504;13.480;2023-09-19T02:14:59;18.10;99.90
51867;DHT22;52862;52.504;13.480;2023-09-19T02:17:27;18.10;99.90
51867;DHT22;52862;52.504;13.480;2023-09-19T02:19:54;18.10;99.90
51867;DHT22;52862;52.504;13.480;2023-09-19T02:22:21;17.20;99.90
51867;DHT22;52862;52.504;13.480;2023-09-19T02:29:44;18.20;99.90
51867;DHT22;52862;52.504;13.480;2023-09-19T02:37:06;18.00;99.90
51867;DHT22;52862;52.504;13.480;2023-09-19T02:39:34;18.30;99.90
51867;DHT22;52862;52.504;13.480;2023-09-19T02:42:02;17.70;99.90
51867;DHT22;52862;52.504;13.480;2023-09-19T02:44:30;18.00;99.90
51867;DHT22;52862;52.504;13.480;2023-09-19T02:49:24;17.90;99.90
51867;DHT22;52862;52.504;13.480;2023-09-19T02:54:19;17.90;99.90
51867;DHT22;52862;52.504;13.480;2023-09-19T03:01:43;17.90;99.90
51867;DHT22;52862;52.504;13.480;2023-09-19T03:11:38;18.10;99.90
51867;DHT22;52862;52.504;13.480;2023-09-19T03:14:06;18.10;99.90
51867;DHT22;52862;52.504;13.480;2023-09-19T03:28:53;18.00;99.90
51867;DHT22;52862;52.504;13.480;2023-09-19T03:41:09;17.90;99.90
51867;DHT22;52862;52.504;13.480;2023-09-19T03:46:08;18.10;99.90
51867;DHT22;52862;52.504;13.480;2023-09-19T04:03:18;18.10;99.90
51867;DHT22;52862;52.504;13.480;2023-09-19T04:10:42;17.90;99.90
51867;DHT22;52862;52.504;13.480;2023-09-19T04:27:54;18.50;99.90
51867;DHT22;52862;52.504;13.480;2023-09-19T04:30:21;17.80;99.90
51867;DHT22;52862;52.504;13.480;2023-09-19T04:35:17;17.70;99.90
51867;DHT22;52862;52.504;13.480;2023-09-19T04:37:44;18.20;99.90
51867;DHT22;52862;52.504;13.480;2023-09-19T04:42:39;17.90;99.90
51867;DHT22;52862;52.504;13.480;2023-09-19T04:45:07;18.30;99.90
51867;DHT22;52862;52.504;13.480;2023-09-19T04:50:06;17.70;99.90
51867;DHT22;52862;52.504;13.480;2023-09-19T04:55:02;17.80;99.90
51867;DHT22;52862;52.504;13.480;2023-09-19T05:07:19;17.00;99.90
51867;DHT22;52862;52.504;13.480;2023-09-19T05:12:16;17.70;99.90
51867;DHT22;52862;52.504;13.480;2023-09-19T05:14:45;17.90;99.90
51867;DHT22;52862;52.504;13.480;2023-09-19T05:17:13;17.70;99.90
51867;DHT22;52862;52.504;13.480;2023-09-19T05:22:10;18.00;99.90
51867;DHT22;52862;52.504;13.480;2023-09-19T05:29:34;17.70;99.90
51867;DHT22;52862;52.504;13.480;2023-09-19T05:34:28;18.00;99.90
51867;DHT22;52862;52.504;13.480;2023-09-19T05:46:45;17.60;99.90
51867;DHT22;52862;52.504;13.480;2023-09-19T05:54:06;17.50;99.90
51867;DHT22;52862;52.504;13.480;2023-09-19T05:56:33;17.40;99.90
51867;DHT22;52862;52.504;13.480;2023-09-19T06:03:54;18.00;99.90
51867;DHT22;52862;52.504;13.480;2023-09-19T06:06:22;16.20;99.90
51867;DHT22;52862;52.504;13.480;2023-09-19T06:18:42;17.40;99.90
51867;DHT22;52862;52.504;13.480;2023-09-19T06:21:09;17.70;99.90
51867;DHT22;52862;52.504;13.480;2023-09-19T06:31:02;17.80;99.90
51867;DHT22;52862;52.504;13.480;2023-09-19T06:35:57;18.20;99.90
51867;DHT22;52862;52.504;13.480;2023-09-19T06:38:29;19.80;99.90
51867;DHT22;52862;52.504;13.480;2023-09-19T06:43:23;18.10;99.90
51867;DHT22;52862;52.504;13.480;2023-09-19T06:45:50;18.40;99.90
51867;DHT22;52862;52.504;13.480;2023-09-19T06:48:17;18.00;99.90
51867;DHT22;52862;52.504;13.480;2023-09-19T06:50:44;18.00;99.90
51867;DHT22;52862;52.504;13.480;2023-09-19T06:55:38;18.50;99.90
51867;DHT22;52862;52.504;13.480;2023-09-19T06:58:06;18.80;99.90
51867;DHT22;52862;52.504;13.480;2023-09-19T07:00:32;18.50;99.90
51867;DHT22;52862;52.504;13.480;2023-09-19T07:03:03;18.60;99.90
51867;DHT22;52862;52.504;13.480;2023-09-19T07:05:31;19.50;99.90
51867;DHT22;52862;52.504;13.480;2023-09-19T07:07:59;18.80;99.90
51867;DHT22;52862;52.504;13.480;2023-09-19T07:10:27;19.20;99.90
51867;DHT22;52862;52.504;13.480;2023-09-19T07:12:58;19.40;99.90
51867;DHT22;52862;52.504;13.480;2023-09-19T07:15:25;19.50;99.90
51867;DHT22;52862;52.504;13.480;2023-09-19T07:20:19;19.30;99.90
51867;DHT22;52862;52.504;13.480;2023-09-19T07:22:46;20.20;99.90
51867;DHT22;52862;52.504;13.480;2023-09-19T07:25:14;19.60;99.90
51867;DHT22;52862;52.504;13.480;2023-09-19T07:30:10;19.10;99.90
51867;DHT22;52862;52.504;13.480;2023-09-19T07:32:38;19.60;99.90
51867;DHT22;52862;52.504;13.480;2023-09-19T07:35:08;19.30;99.90
51867;DHT22;52862;52.504;13.480;2023-09-19T07:37:35;19.60;99.90
51867;DHT22;52862;52.504;13.480;2023-09-19T07:40:02;19.00;99.90
51867;DHT22;52862;52.504;13.480;2023-09-19T07:42:33;19.40;99.90
51867;DHT22;52862;52.504;13.480;2023-09-19T07:45:01;20.10;99.90
51867;DHT22;52862;52.504;13.480;2023-09-19T07:47:28;19.30;99.90
51867;DHT22;52862;52.504;13.480;2023-09-19T07:52:23;19.60;99.90
51867;DHT22;52862;52.504;13.480;2023-09-19T07:59:44;19.40;99.90
51867;DHT22;52862;52.504;13.480;2023-09-19T08:02:13;19.50;99.90
51867;DHT22;52862;52.504;13.480;2023-09-19T08:04:45;19.60;99.90
51867;DHT22;52862;52.504;13.480;2023-09-19T08:09:40;19.60;99.90
51867;DHT22;52862;52.504;13.480;2023-09-19T08:12:07;20.00;99.90
51867;DHT22;52862;52.504;13.480;2023-09-19T08:14:36;20.00;99.90
51867;DHT22;52862;52.504;13.480;2023-09-19T08:17:03;18.80;99.90
51867;DHT22;52862;52.504;13.480;2023-09-19T08:19:32;19.70;99.90
51867;DHT22;52862;52.504;13.480;2023-09-19T08:21:59;18.90;99.90
51867;DHT22;52862;52.504;13.480;2023-09-19T08:24:27;19.60;99.90
51867;DHT22;52862;52.504;13.480;2023-09-19T08:29:22;19.60;99.90
51867;DHT22;52862;52.504;13.480;2023-09-19T08:31:54;19.10;99.90
51867;DHT22;52862;52.504;13.480;2023-09-19T08:34:22;18.60;99.90
51867;DHT22;52862;52.504;13.480;2023-09-19T08:36:50;18.80;99.90
51867;DHT22;52862;52.504;13.480;2023-09-19T08:39:19;18.70;99.90
51867;DHT22;52862;52.504;13.480;2023-09-19T08:41:46;18.10;99.90
51867;DHT22;52862;52.504;13.480;2023-09-19T08:44:13;19.50;99.90
51867;DHT22;52862;52.504;13.480;2023-09-19T08:46:41;19.40;99.90
51867;DHT22;52862;52.504;13.480;2023-09-19T08:49:15;19.50;99.90
51867;DHT22;52862;52.504;13.480;2023-09-19T08:51:45;19.30;99.90
51867;DHT22;52862;52.504;13.480;2023-09-19T08:54:20;18.60;99.90
51867;DHT22;52862;52.504;13.480;2023-09-19T08:59:15;19.40;99.90
51867;DHT22;52862;52.504;13.480;2023-09-19T09:04:12;20.00;99.90
51867;DHT22;52862;52.504;13.480;2023-09-19T09:06:39;19.40;99.90
51867;DHT22;52862;52.504;13.480;2023-09-19T09:09:07;18.80;99.90
51867;DHT22;52862;52.504;13.480;2023-09-19T09:11:36;19.40;99.90
51867;DHT22;52862;52.504;13.480;2023-09-19T09:14:06;19.40;99.90
51867;DHT22;52862;52.504;13.480;2023-09-19T09:16:33;19.50;99.90
51867;DHT22;52862;52.504;13.480;2023-09-19T09:19:02;20.10;99.90
51867;DHT22;52862;52.504;13.480;2023-09-19T09:24:28;19.80;99.90
51867;DHT22;52862;52.504;13.480;2023-09-19T09:26:56;19.90;99.90
51867;DHT22;52862;52.504;13.480;2023-09-19T09:29:40;20.30;99.90
51867;DHT22;52862;52.504;13.480;2023-09-19T09:32:17;20.40;99.90
51867;DHT22;52862;52.504;13.480;2023-09-19T09:34:44;20.20;99.90
51867;DHT22;52862;52.504;13.480;2023-09-19T09:37:14;20.30;99.90
51867;DHT22;52862;52.504;13.480;2023-09-19T09:39:49;20.70;99.90
51867;DHT22;52862;52.504;13.480;2023-09-19T09:42:30;22.40;99.90
51867;DHT22;52862;52.504;13.480;2023-09-19T09:45:15;19.90;99.90
51867;DHT22;52862;52.504;13.480;2023-09-19T09:47:46;20.90;99.90
51867;DHT22;52862;52.504;13.480;2023-09-19T09:50:26;19.90;99.90
51867;DHT22;52862;52.504;13.480;2023-09-19T09:52:55;20.30;99.90
51867;DHT22;52862;52.504;13.480;2023-09-19T09:55:57;20.50;99.90
51867;DHT22;52862;52.504;13.480;2023-09-19T09:58:25;20.90;99.90
51867;DHT22;52862;52.504;13.480;2023-09-19T10:00:56;21.10;99.90
51867;DHT22;52862;52.504;13.480;2023-09-19T10:03:34;20.70;99.90
51867;DHT22;52862;52.504;13.480;2023-09-19T10:06:07;20.50;99.90
51867;DHT22;52862;52.504;13.480;2023-09-19T10:09:04;20.30;99.90
51867;DHT22;52862;52.504;13.480;2023-09-19T10:11:41;20.60;99.90
51867;DHT22;52862;52.504;13.480;2023-09-19T10:14:11;21.10;99.90
51867;DHT22;52862;52.504;13.480;2023-09-19T10:16:41;20.70;99.90
51867;DHT22;52862;52.504;13.480;2023-09-19T10:19:16;20.50;99.90
51867;DHT22;52862;52.504;13.480;2023-09-19T10:21:50;20.90;99.90
51867;DHT22;52862;52.504;13.480;2023-09-19T10:24:17;20.70;99.90
51867;DHT22;52862;52.504;13.480;2023-09-19T10:26:46;20.80;99.90
51867;DHT22;52862;52.504;13.480;2023-09-19T10:29:18;20.50;99.90
51867;DHT22;52862;52.504;13.480;2023-09-19T10:31:47;20.50;99.90
51867;DHT22;52862;52.504;13.480;2023-09-19T10:34:15;21.00;99.90
51867;DHT22;52862;52.504;13.480;2023-09-19T10:36:44;21.60;99.90
51867;DHT22;52862;52.504;13.480;2023-09-19T10:39:14;21.00;99.90
51867;DHT22;52862;52.504;13.480;2023-09-19T10:41:49;21.60;99.90
51867;DHT22;52862;52.504;13.480;2023-09-19T10:44:24;21.30;99.90
51867;DHT22;52862;52.504;13.480;2023-09-19T10:46:51;21.20;99.90
51867;DHT22;52862;52.504;13.480;2023-09-19T10:49:20;21.80;99.90
51867;DHT22;52862;52.504;13.480;2023-09-19T10:51:50;21.40;99.90
51867;DHT22;52862;52.504;13.480;2023-09-19T10:54:21;21.20;99.90
51867;DHT22;52862;52.504;13.480;2023-09-19T10:56:53;21.50;99.90
51867;DHT22;52862;52.504;13.480;2023-09-19T10:59:21;21.20;99.90
51867;DHT22;52862;52.504;13.480;2023-09-19T11:01:50;20.50;99.90
51867;DHT22;52862;52.504;13.480;2023-09-19T11:04:24;21.00;99.90
51867;DHT22;52862;52.504;13.480;2023-09-19T11:07:03;21.40;99.90
51867;DHT22;52862;52.504;13.480;2023-09-19T11:09:49;21.50;99.90
51867;DHT22;52862;52.504;13.480;2023-09-19T11:12:49;21.30;99.90
51867;DHT22;52862;52.504;13.480;2023-09-19T11:21:52;21.20;99.90
51867;DHT22;52862;52.504;13.480;2023-09-19T11:24:31;21.40;99.90
51867;DHT22;52862;52.504;13.480;2023-09-19T11:27:15;21.20;99.90
51867;DHT22;52862;52.504;13.480;2023-09-19T11:29:44;21.30;99.90
51867;DHT22;52862;52.504;13.480;2023-09-19T11:34:40;21.60;99.90
51867;DHT22;52862;52.504;13.480;2023-09-19T11:40:29;21.00;99.90
51867;DHT22;52862;52.504;13.480;2023-09-19T11:42:56;21.20;99.90
51867;DHT22;52862;52.504;13.480;2023-09-19T11:46:01;21.00;99.90
51867;DHT22;52862;52.504;13.480;2023-09-19T11:48:41;21.20;99.90
51867;DHT22;52862;52.504;13.480;2023-09-19T11:51:13;21.20;99.90
51867;DHT22;52862;52.504;13.480;2023-09-19T11:53:48;20.70;99.90
51867;DHT22;52862;52.504;13.480;2023-09-19T11:56:17;21.10;99.90
51867;DHT22;52862;52.504;13.480;2023-09-19T11:58:44;21.20;99.90
51867;DHT22;52862;52.504;13.480;2023-09-19T12:01:16;21.50;99.90
51867;DHT22;52862;52.504;13.480;2023-09-19T12:03:52;20.90;99.90
51867;DHT22;52862;52.504;13.480;2023-09-19T12:06:20;21.50;99.90
51867;DHT22;52862;52.504;13.480;2023-09-19T12:11:17;22.10;99.90
51867;DHT22;52862;52.504;13.480;2023-09-19T12:13:47;21.20;99.90
51867;DHT22;52862;52.504;13.480;2023-09-19T12:16:15;21.40;99.90
51867;DHT22;52862;52.504;13.480;2023-09-19T12:18:43;21.90;99.90
51867;DHT22;52862;52.504;13.480;2023-09-19T12:21:29;22.00;99.90
51867;DHT22;52862;52.504;13.480;2023-09-19T12:24:04;21.90;99.90
51867;DHT22;52862;52.504;13.480;2023-09-19T12:26:39;21.60;99.60
51867;DHT22;52862;52.504;13.480;2023-09-19T12:29:12;21.60;99.90
51867;DHT22;52862;52.504;13.480;2023-09-19T12:31:47;22.00;99.90
51867;DHT22;52862;52.504;13.480;2023-09-19T12:34:19;22.30;99.90
51867;DHT22;52862;52.504;13.480;2023-09-19T12:36:46;22.30;99.90
51867;DHT22;52862;52.504;13.480;2023-09-19T12:39:23;23.20;99.90
51867;DHT22;52862;52.504;13.480;2023-09-19T12:41:52;22.80;99.90
51867;DHT22;52862;52.504;13.480;2023-09-19T12:44:20;22.50;99.90
51867;DHT22;52862;52.504;13.480;2023-09-19T12:46:46;22.70;97.70
51867;DHT22;52862;52.504;13.480;2023-09-19T12:49:17;22.80;99.90
51867;DHT22;52862;52.504;13.480;2023-09-19T12:51:45;22.60;99.90
51867;DHT22;52862;52.504;13.480;2023-09-19T12:54:13;22.60;99.90
51867;DHT22;52862;52.504;13.480;2023-09-19T12:56:41;22.30;97.60
51867;DHT22;52862;52.504;13.480;2023-09-19T12:59:29;22.60;99.90
51867;DHT22;52862;52.504;13.480;2023-09-19T13:02:04;22.80;97.30
51867;DHT22;52862;52.504;13.480;2023-09-19T13:04:33;23.10;99.90
51867;DHT22;52862;52.504;13.480;2023-09-19T13:07:00;22.80;99.90
51867;DHT22;52862;52.504;13.480;2023-09-19T13:09:28;22.10;99.90
51867;DHT22;52862;52.504;13.480;2023-09-19T13:12:01;22.30;99.90
51867;DHT22;52862;52.504;13.480;2023-09-19T13:14:30;21.90;99.90
51867;DHT22;52862;52.504;13.480;2023-09-19T13:17:01;21.80;99.90
51867;DHT22;52862;52.504;13.480;2023-09-19T13:19:38;21.60;99.90
51867;DHT22;52862;52.504;13.480;2023-09-19T13:22:36;22.00;99.90
51867;DHT22;52862;52.504;13.480;2023-09-19T13:25:05;21.20;99.90
51867;DHT22;52862;52.504;13.480;2023-09-19T13:27:32;21.90;99.90
51867;DHT22;52862;52.504;13.480;2023-09-19T13:30:00;21.50;99.90
51867;DHT22;52862;52.504;13.480;2023-09-19T13:34:54;21.60;99.90
51867;DHT22;52862;52.504;13.480;2023-09-19T13:37:21;21.90;99.90
51867;DHT22;52862;52.504;13.480;2023-09-19T13:39:48;22.30;99.90
51867;DHT22;52862;52.504;13.480;2023-09-19T13:42:15;22.30;99.90
51867;DHT22;52862;52.504;13.480;2023-09-19T13:44:42;22.20;99.00
51867;DHT22;52862;52.504;13.480;2023-09-19T13:47:10;22.40;97.60
51867;DHT22;52862;52.504;13.480;2023-09-19T13:49:39;22.20;99.90
51867;DHT22;52862;52.504;13.480;2023-09-19T13:52:06;22.70;99.90
51867;DHT22;52862;52.504;13.480;2023-09-19T13:54:33;22.10;99.90
51867;DHT22;52862;52.504;13.480;2023-09-19T13:57:00;22.40;99.90
51867;DHT22;52862;52.504;13.480;2023-09-19T14:01:54;22.50;99.90
51867;DHT22;52862;52.504;13.480;2023-09-19T14:04:22;22.10;98.50
51867;DHT22;52862;52.504;13.480;2023-09-19T14:06:49;22.60;99.90
51867;DHT22;52862;52.504;13.480;2023-09-19T14:09:15;22.80;99.90
51867;DHT22;52862;52.504;13.480;2023-09-19T14:14:13;22.70;99.90
51867;DHT22;52862;52.504;13.480;2023-09-19T14:16:40;22.30;97.80
51867;DHT22;52862;52.504;13.480;2023-09-19T14:21:36;21.80;99.90
51867;DHT22;52862;52.504;13.480;2023-09-19T14:24:04;21.80;99.90
51867;DHT22;52862;52.504;13.480;2023-09-19T14:29:00;21.70;99.90
51867;DHT22;52862;52.504;13.480;2023-09-19T14:31:27;22.60;99.90
51867;DHT22;52862;52.504;13.480;2023-09-19T14:33:54;22.20;99.90
51867;DHT22;52862;52.504;13.480;2023-09-19T14:36:22;21.70;99.90
51867;DHT22;52862;52.504;13.480;2023-09-19T14:38:53;22.20;99.90
51867;DHT22;52862;52.504;13.480;2023-09-19T14:41:21;21.60;99.90
51867;DHT22;52862;52.504;13.480;2023-09-19T14:43:49;21.20;99.90
51867;DHT22;52862;52.504;13.480;2023-09-19T14:46:15;21.70;99.90
51867;DHT22;52862;52.504;13.480;2023-09-19T14:53:38;22.00;99.90
51867;DHT22;52862;52.504;13.480;2023-09-19T14:56:08;21.60;99.90
51867;DHT22;52862;52.504;13.480;2023-09-19T14:58:35;21.40;99.90
51867;DHT22;52862;52.504;13.480;2023-09-19T15:01:03;21.20;99.90
51867;DHT22;52862;52.504;13.480;2023-09-19T15:03:31;21.80;99.90
51867;DHT22;52862;52.504;13.480;2023-09-19T15:06:02;21.50;98.70
51867;DHT22;52862;52.504;13.480;2023-09-19T15:08:29;21.20;99.90
51867;DHT22;52862;52.504;13.480;2023-09-19T15:10:55;21.20;99.90
51867;DHT22;52862;52.504;13.480;2023-09-19T15:13:25;21.10;99.90
51867;DHT22;52862;52.504;13.480;2023-09-19T15:15:59;21.80;99.90
51867;DHT22;52862;52.504;13.480;2023-09-19T15:18:26;21.90;99.90
51867;DHT22;52862;52.504;13.480;2023-09-19T15:20:53;21.30;99.90
51867;DHT22;52862;52.504;13.480;2023-09-19T15:23:20;20.90;99.90
51867;DHT22;52862;52.504;13.480;2023-09-19T15:28:26;22.70;98.80
51867;DHT22;52862;52.504;13.480;2023-09-19T15:30:58;21.60;99.90
51867;DHT22;52862;52.504;13.480;2023-09-19T15:33:24;21.60;98.70
51867;DHT22;52862;52.504;13.480;2023-09-19T15:38:20;21.10;99.90
51867;DHT22;52862;52.504;13.480;2023-09-19T15:43:14;21.50;99.90
51867;DHT22;52862;52.504;13.480;2023-09-19T15:45:41;21.20;99.00
51867;DHT22;52862;52.504;13.480;2023-09-19T15:50:35;21.50;99.90
51867;DHT22;52862;52.504;13.480;2023-09-19T15:55:29;20.70;99.90
51867;DHT22;52862;52.504;13.480;2023-09-19T15:57:57;20.90;99.90
51867;DHT22;52862;52.504;13.480;2023-09-19T16:00:24;21.40;99.90
51867;DHT22;52862;52.504;13.480;2023-09-19T16:02:52;21.00;99.80
51867;DHT22;52862;52.504;13.480;2023-09-19T16:07:48;21.40;99.90
51867;DHT22;52862;52.504;13.480;2023-09-19T16:10:15;20.90;99.90
51867;DHT22;52862;52.504;13.480;2023-09-19T16:12:42;20.80;99.90
51867;DHT22;52862;52.504;13.480;2023-09-19T16:15:09;21.00;99.90
51867;DHT22;52862;52.504;13.480;2023-09-19T16:20:06;20.50;99.90
51867;DHT22;52862;52.504;13.480;2023-09-19T16:22:38;20.70;99.90
51867;DHT22;52862;52.504;13.480;2023-09-19T16:25:06;20.50;99.90
51867;DHT22;52862;52.504;13.480;2023-09-19T16:30:02;20.80;99.90
51867;DHT22;52862;52.504;13.480;2023-09-19T16:32:29;20.90;99.90
51867;DHT22;52862;52.504;13.480;2023-09-19T16:34:56;20.80;99.90
51867;DHT22;52862;52.504;13.480;2023-09-19T16:37:24;20.70;99.90
51867;DHT22;52862;52.504;13.480;2023-09-19T16:42:18;20.50;99.90
51867;DHT22;52862;52.504;13.480;2023-09-19T16:44:47;20.10;99.90
51867;DHT22;52862;52.504;13.480;2023-09-19T16:47:14;20.60;99.90
51867;DHT22;52862;52.504;13.480;2023-09-19T16:49:41;20.50;99.90
51867;DHT22;52862;52.504;13.480;2023-09-19T16:54:36;20.00;99.90
51867;DHT22;52862;52.504;13.480;2023-09-19T16:57:03;20.00;99.90
51867;DHT22;52862;52.504;13.480;2023-09-19T16:59:30;19.70;99.90
51867;DHT22;52862;52.504;13.480;2023-09-19T17:01:58;19.70;99.90
51867;DHT22;52862;52.504;13.480;2023-09-19T17:11:51;20.30;99.90
51867;DHT22;52862;52.504;13.480;2023-09-19T17:14:18;19.70;99.90
51867;DHT22;52862;52.504;13.480;2023-09-19T17:19:13;20.10;99.90
51867;DHT22;52862;52.504;13.480;2023-09-19T17:21:40;19.00;99.90
51867;DHT22;52862;52.504;13.480;2023-09-19T17:29:03;19.80;99.90
51867;DHT22;52862;52.504;13.480;2023-09-19T17:33:59;19.60;99.90
51867;DHT22;52862;52.504;13.480;2023-09-19T17:36:26;19.40;99.90
51867;DHT22;52862;52.504;13.480;2023-09-19T17:38:54;19.50;99.90
51867;DHT22;52862;52.504;13.480;2023-09-19T17:41:22;19.60;99.90
51867;DHT22;52862;52.504;13.480;2023-09-19T17:43:53;19.40;99.90
51867;DHT22;52862;52.504;13.480;2023-09-19T17:46:21;19.70;99.90
51867;DHT22;52862;52.504;13.480;2023-09-19T17:48:51;19.30;99.90
51867;DHT22;52862;52.504;13.480;2023-09-19T17:51:19;19.20;99.90
51867;DHT22;52862;52.504;13.480;2023-09-19T17:53:46;19.80;99.90
51867;DHT22;52862;52.504;13.480;2023-09-19T17:56:15;19.30;99.90
51867;DHT22;52862;52.504;13.480;2023-09-19T17:58:44;19.30;99.90
51867;DHT22;52862;52.504;13.480;2023-09-19T18:01:12;18.90;99.90
51867;DHT22;52862;52.504;13.480;2023-09-19T18:03:40;19.50;99.90
51867;DHT22;52862;52.504;13.480;2023-09-19T18:06:07;19.50;99.90
51867;DHT22;52862;52.504;13.480;2023-09-19T18:08:35;19.20;99.90
51867;DHT22;52862;52.504;13.480;2023-09-19T18:11:02;18.40;99.90
51867;DHT22;52862;52.504;13.480;2023-09-19T18:13:29;19.50;99.90
51867;DHT22;52862;52.504;13.480;2023-09-19T18:15:56;19.40;99.90
51867;DHT22;52862;52.504;13.480;2023-09-19T18:18:25;19.70;99.90
51867;DHT22;52862;52.504;13.480;2023-09-19T18:20:52;19.00;99.90
51867;DHT22;52862;52.504;13.480;2023-09-19T18:23:20;19.00;99.90
51867;DHT22;52862;52.504;13.480;2023-09-19T18:25:47;18.80;99.90
51867;DHT22;52862;52.504;13.480;2023-09-19T18:28:14;19.30;99.90
51867;DHT22;52862;52.504;13.480;2023-09-19T18:30:41;19.50;99.90
51867;DHT22;52862;52.504;13.480;2023-09-19T18:35:35;18.80;99.90
51867;DHT22;52862;52.504;13.480;2023-09-19T18:38:02;19.20;99.90
51867;DHT22;52862;52.504;13.480;2023-09-19T18:42:56;18.90;99.90
51867;DHT22;52862;52.504;13.480;2023-09-19T18:45:23;18.70;99.90
51867;DHT22;52862;52.504;13.480;2023-09-19T18:48:06;18.90;99.90
51867;DHT22;52862;52.504;13.480;2023-09-19T18:50:37;18.70;99.90
51867;DHT22;52862;52.504;13.480;2023-09-19T18:53:10;19.00;99.90
51867;DHT22;52862;52.504;13.480;2023-09-19T18:55:37;18.50;99.90
51867;DHT22;52862;52.504;13.480;2023-09-19T19:00:32;18.50;99.90
51867;DHT22;52862;52.504;13.480;2023-09-19T19:10:24;18.80;99.90
51867;DHT22;52862;52.504;13.480;2023-09-19T19:12:50;19.00;99.90
51867;DHT22;52862;52.504;13.480;2023-09-19T19:20:12;18.70;99.90
51867;DHT22;52862;52.504;13.480;2023-09-19T19:22:40;18.50;99.90
51867;DHT22;52862;52.504;13.480;2023-09-19T19:25:08;18.70;99.90
51867;DHT22;52862;52.504;13.480;2023-09-19T19:27:36;19.00;99.90
51867;DHT22;52862;52.504;13.480;2023-09-19T19:30:04;18.70;99.90
51867;DHT22;52862;52.504;13.480;2023-09-19T19:37:26;18.60;99.90
51867;DHT22;52862;52.504;13.480;2023-09-19T19:44:50;18.60;99.90
51867;DHT22;52862;52.504;13.480;2023-09-19T19:47:20;18.80;99.90
51867;DHT22;52862;52.504;13.480;2023-09-19T19:52:14;18.60;99.90
51867;DHT22;52862;52.504;13.480;2023-09-19T19:57:08;18.80;99.90
51867;DHT22;52862;52.504;13.480;2023-09-19T20:02:02;18.50;99.90
51867;DHT22;52862;52.504;13.480;2023-09-19T20:09:25;19.20;99.90
51867;DHT22;52862;52.504;13.480;2023-09-19T20:11:53;18.20;99.90
51867;DHT22;52862;52.504;13.480;2023-09-19T20:14:19;18.90;99.90
51867;DHT22;52862;52.504;13.480;2023-09-19T20:19:16;18.10;99.90
51867;DHT22;52862;52.504;13.480;2023-09-19T20:21:47;18.40;99.90
51867;DHT22;52862;52.504;13.480;2023-09-19T20:31:44;18.60;99.90
51867;DHT22;52862;52.504;13.480;2023-09-19T20:36:39;18.50;99.90
51867;DHT22;52862;52.504;13.480;2023-09-19T20:39:07;18.70;99.90
51867;DHT22;52862;52.504;13.480;2023-09-19T20:41:36;18.40;99.90
51867;DHT22;52862;52.504;13.480;2023-09-19T20:44:03;18.20;99.90
51867;DHT22;52862;52.504;13.480;2023-09-19T20:48:57;17.50;99.90
51867;DHT22;52862;52.504;13.480;2023-09-19T20:51:26;18.60;99.90
51867;DHT22;52862;52.504;13.480;2023-09-19T20:54:01;18.80;99.90
51867;DHT22;52862;52.504;13.480;2023-09-19T20:56:28;17.50;99.90